createdAt,value
2022-12-03T00:00:24.000Z,8.95
2022-12-03T00:03:34.000Z,9.93
2022-12-03T00:05:16.000Z,10.33
2022-12-03T00:07:19.000Z,9.93
2022-12-03T00:09:46.000Z,9.83
2022-12-03T00:12:12.000Z,9.4
2022-12-03T00:14:38.000Z,9.2
2022-12-03T00:17:03.000Z,9.23
2022-12-03T00:19:29.000Z,9.1
2022-12-03T00:21:54.000Z,8.6
2022-12-03T00:24:24.000Z,8.7
2022-12-03T00:26:51.000Z,7.78
2022-12-03T00:29:15.000Z,8.35
2022-12-03T00:31:40.000Z,8.08
2022-12-03T00:34:07.000Z,7.28
2022-12-03T00:36:32.000Z,6.67
2022-12-03T00:38:58.000Z,7.1
2022-12-03T00:41:24.000Z,6.77
2022-12-03T00:43:50.000Z,7.1
2022-12-03T00:46:31.000Z,7.12
2022-12-03T00:48:42.000Z,7.03
2022-12-03T00:51:09.000Z,8.25
2022-12-03T00:53:33.000Z,8.1
2022-12-03T00:55:59.000Z,8.5
2022-12-03T00:58:24.000Z,9
2022-12-03T01:00:50.000Z,9.18
2022-12-03T01:03:15.000Z,9.03
2022-12-03T01:05:41.000Z,9.2
2022-12-03T01:08:08.000Z,9.07
2022-12-03T01:10:33.000Z,9.95
2022-12-03T01:13:00.000Z,9.7
2022-12-03T01:15:26.000Z,9.98
2022-12-03T01:17:52.000Z,10.6
2022-12-03T01:20:20.000Z,11.37
2022-12-03T01:22:43.000Z,12.17
2022-12-03T01:25:09.000Z,11.93
2022-12-03T01:27:34.000Z,11.37
2022-12-03T01:30:00.000Z,11.12
2022-12-03T01:32:26.000Z,11.33
2022-12-03T01:34:52.000Z,11.22
2022-12-03T01:37:18.000Z,12.55
2022-12-03T01:39:43.000Z,11.63
2022-12-03T01:42:10.000Z,11.5
2022-12-03T01:44:35.000Z,11.87
2022-12-03T01:47:00.000Z,12.5
2022-12-03T01:49:27.000Z,12.53
2022-12-03T01:51:52.000Z,12.33
2022-12-03T01:54:19.000Z,12.03
2022-12-03T01:56:43.000Z,11.33
2022-12-03T01:59:09.000Z,11.03
2022-12-03T02:01:36.000Z,13.18
2022-12-03T02:04:02.000Z,12.07
2022-12-03T02:06:29.000Z,11.85
2022-12-03T02:08:54.000Z,10.4
2022-12-03T02:11:20.000Z,10.28
2022-12-03T02:13:46.000Z,9.98
2022-12-03T02:16:12.000Z,9.93
2022-12-03T02:18:37.000Z,9.68
2022-12-03T02:21:05.000Z,8.3
2022-12-03T02:23:29.000Z,7.5
2022-12-03T02:25:54.000Z,7.28
2022-12-03T02:28:20.000Z,5.95
2022-12-03T02:30:47.000Z,5.27
2022-12-03T02:33:13.000Z,5.47
2022-12-03T02:35:37.000Z,5.5
2022-12-03T02:38:04.000Z,6.22
2022-12-03T02:40:31.000Z,6.12
2022-12-03T02:42:56.000Z,5.8
2022-12-03T02:45:22.000Z,6.53
2022-12-03T02:47:47.000Z,7.12
2022-12-03T02:50:15.000Z,6.85
2022-12-03T02:52:42.000Z,7.75
2022-12-03T02:55:11.000Z,6.05
2022-12-03T02:57:35.000Z,5.77
2022-12-03T03:00:01.000Z,5.8
2022-12-03T03:02:27.000Z,6.22
2022-12-03T03:07:23.000Z,6.2
2022-12-03T03:09:49.000Z,6.12
2022-12-03T03:12:15.000Z,5.92
2022-12-03T03:14:41.000Z,5.5
2022-12-03T03:17:11.000Z,5.33
2022-12-03T03:19:38.000Z,4.83
2022-12-03T03:22:03.000Z,4.65
2022-12-03T03:24:29.000Z,4.6
2022-12-03T03:26:59.000Z,4.67
2022-12-03T03:29:25.000Z,4.17
2022-12-03T03:31:52.000Z,5.78
2022-12-03T03:34:19.000Z,4.42
2022-12-03T03:36:44.000Z,4.5
2022-12-03T03:39:10.000Z,4.2
2022-12-03T03:41:36.000Z,4
2022-12-03T03:46:29.000Z,3.8
2022-12-03T03:48:56.000Z,4.45
2022-12-03T03:51:20.000Z,4.27
2022-12-03T03:53:49.000Z,4.97
2022-12-03T03:56:13.000Z,4.12
2022-12-03T03:58:40.000Z,3.63
2022-12-03T04:01:11.000Z,4.03
2022-12-03T04:03:31.000Z,3.4
2022-12-03T04:05:56.000Z,3.33
2022-12-03T04:10:48.000Z,3.95
2022-12-03T04:13:14.000Z,8.88
2022-12-03T04:15:42.000Z,9.47
2022-12-03T04:18:09.000Z,11.38
2022-12-03T04:20:34.000Z,12.45
2022-12-03T04:23:00.000Z,13.38
2022-12-03T04:25:25.000Z,13.22
2022-12-03T04:27:52.000Z,13.57
2022-12-03T04:30:22.000Z,14.05
2022-12-03T04:32:44.000Z,13.45
2022-12-03T04:35:12.000Z,14.13
2022-12-03T04:37:41.000Z,14.4
2022-12-03T04:40:11.000Z,15.32
2022-12-03T04:42:32.000Z,15.53
2022-12-03T04:44:58.000Z,16.07
2022-12-03T04:47:24.000Z,16.73
2022-12-03T04:49:49.000Z,17.87
2022-12-03T04:52:18.000Z,19.12
2022-12-03T04:54:45.000Z,20.08
2022-12-03T04:57:13.000Z,20.43
2022-12-03T04:59:35.000Z,21.68
2022-12-03T05:02:05.000Z,21.97
2022-12-03T05:04:28.000Z,22.67
2022-12-03T05:06:53.000Z,22.53
2022-12-03T05:09:21.000Z,22.45
2022-12-03T05:11:46.000Z,22.6
2022-12-03T05:14:12.000Z,23.4
2022-12-03T05:16:39.000Z,23.17
2022-12-03T05:19:05.000Z,22.47
2022-12-03T05:21:29.000Z,22.95
2022-12-03T05:23:55.000Z,23.07
2022-12-03T05:26:21.000Z,24.32
2022-12-03T05:28:47.000Z,23
2022-12-03T05:31:13.000Z,23.05
2022-12-03T05:33:38.000Z,22.5
2022-12-03T05:36:04.000Z,22.47
2022-12-03T05:38:30.000Z,22.6
2022-12-03T05:43:27.000Z,20
2022-12-03T05:45:52.000Z,18.75
2022-12-03T05:48:18.000Z,17.37
2022-12-03T05:50:44.000Z,19.07
2022-12-03T05:53:10.000Z,17.87
2022-12-03T05:55:38.000Z,17.32
2022-12-03T05:58:05.000Z,18.48
2022-12-03T06:00:52.000Z,17.17
2022-12-03T06:03:29.000Z,33.13
2022-12-03T06:05:22.000Z,25.7
2022-12-03T06:07:47.000Z,14.6
2022-12-03T06:10:14.000Z,13.13
2022-12-03T06:12:39.000Z,10.28
2022-12-03T06:15:06.000Z,8.6
2022-12-03T06:17:30.000Z,8.23
2022-12-03T06:19:56.000Z,7.5
2022-12-03T06:22:21.000Z,7.58
2022-12-03T06:24:51.000Z,6.6
2022-12-03T06:27:14.000Z,6.92
2022-12-03T06:29:41.000Z,7.08
2022-12-03T06:32:05.000Z,8.8
2022-12-03T06:34:31.000Z,8.88
2022-12-03T06:36:57.000Z,8.45
2022-12-03T06:39:25.000Z,7.95
2022-12-03T06:41:50.000Z,8.25
2022-12-03T06:44:16.000Z,8.58
2022-12-03T06:46:43.000Z,8.6
2022-12-03T06:49:11.000Z,9.2
2022-12-03T06:51:37.000Z,8.58
2022-12-03T06:54:05.000Z,9
2022-12-03T06:56:31.000Z,9.28
2022-12-03T06:58:58.000Z,8.87
2022-12-03T07:01:37.000Z,9.1
2022-12-03T07:03:55.000Z,8.93
2022-12-03T07:06:22.000Z,10.23
2022-12-03T07:11:13.000Z,9.73
2022-12-03T07:13:38.000Z,9.5
2022-12-03T07:16:06.000Z,9.18
2022-12-03T07:18:30.000Z,9.55
2022-12-03T07:20:56.000Z,9.43
2022-12-03T07:23:23.000Z,9.6
2022-12-03T07:25:50.000Z,9.8
2022-12-03T07:28:15.000Z,9.23
2022-12-03T07:30:41.000Z,8.65
2022-12-03T07:33:08.000Z,9.08
2022-12-03T07:35:33.000Z,9.43
2022-12-03T07:38:00.000Z,9.25
2022-12-03T07:40:25.000Z,9.23
2022-12-03T07:42:51.000Z,9.05
2022-12-03T07:45:16.000Z,9.28
2022-12-03T07:47:43.000Z,9.7
2022-12-03T07:50:10.000Z,10.03
2022-12-03T07:52:38.000Z,9.6
2022-12-03T07:55:09.000Z,8.97
2022-12-03T07:57:34.000Z,8.7
2022-12-03T08:00:00.000Z,8.25
2022-12-03T08:02:30.000Z,9.08
2022-12-03T08:04:51.000Z,8.23
2022-12-03T08:07:19.000Z,8.27
2022-12-03T08:09:46.000Z,8.35
2022-12-03T08:12:14.000Z,8.5
2022-12-03T08:14:39.000Z,9.13
2022-12-03T08:17:03.000Z,8.88
2022-12-03T08:19:30.000Z,8.78
2022-12-03T08:21:56.000Z,8.53
2022-12-03T08:24:25.000Z,8.5
2022-12-03T08:26:50.000Z,8.33
2022-12-03T08:29:17.000Z,7.8
2022-12-03T08:31:42.000Z,8.1
2022-12-03T08:34:08.000Z,7.53
2022-12-03T08:36:34.000Z,7.58
2022-12-03T08:39:00.000Z,7.9
2022-12-03T08:41:29.000Z,7.93
2022-12-03T08:43:53.000Z,8.27
2022-12-03T08:46:18.000Z,8.2
2022-12-03T08:48:44.000Z,8.83
2022-12-03T08:51:11.000Z,8.63
2022-12-03T08:53:37.000Z,8
2022-12-03T08:56:05.000Z,8.2
2022-12-03T08:58:33.000Z,10.43
2022-12-03T09:01:00.000Z,10.68
2022-12-03T09:03:26.000Z,11.08
2022-12-03T09:05:51.000Z,11.4
2022-12-03T09:08:19.000Z,10.88
2022-12-03T09:10:45.000Z,11.33
2022-12-03T09:13:10.000Z,10.82
2022-12-03T09:15:35.000Z,11.73
2022-12-03T09:18:01.000Z,11.8
2022-12-03T09:20:27.000Z,10.95
2022-12-03T09:22:53.000Z,11.03
2022-12-03T09:25:19.000Z,10.87
2022-12-03T09:27:45.000Z,11
2022-12-03T09:30:14.000Z,10.7
2022-12-03T09:32:38.000Z,11.7
2022-12-03T09:35:04.000Z,12.6
2022-12-03T09:37:31.000Z,10.82
2022-12-03T09:40:00.000Z,11.57
2022-12-03T09:42:28.000Z,11.9
2022-12-03T09:44:57.000Z,11.73
2022-12-03T09:47:23.000Z,11.45
2022-12-03T09:49:48.000Z,11.2
2022-12-03T09:52:14.000Z,11.3
2022-12-03T09:54:42.000Z,11.67
2022-12-03T09:57:07.000Z,11.28
2022-12-03T09:59:31.000Z,11.18
2022-12-03T10:04:24.000Z,12.43
2022-12-03T10:06:50.000Z,12.17
2022-12-03T10:09:16.000Z,12.4
2022-12-03T10:11:41.000Z,13
2022-12-03T10:14:07.000Z,17.05
2022-12-03T10:16:35.000Z,26.03
2022-12-03T10:19:01.000Z,49.3
2022-12-03T10:21:30.000Z,61.7
2022-12-03T10:23:59.000Z,59.88
2022-12-03T10:26:25.000Z,49.5
2022-12-03T10:28:54.000Z,36.77
2022-12-03T10:31:20.000Z,27.98
2022-12-03T10:33:46.000Z,25.3
2022-12-03T10:36:12.000Z,18.87
2022-12-03T10:38:37.000Z,17.73
2022-12-03T10:41:08.000Z,14.87
2022-12-03T10:43:42.000Z,15.18
2022-12-03T10:46:09.000Z,14.5
2022-12-03T10:48:35.000Z,12.63
2022-12-03T10:51:00.000Z,10.63
2022-12-03T10:53:27.000Z,10.32
2022-12-03T10:55:55.000Z,11.05
2022-12-03T10:58:23.000Z,17.55
2022-12-03T11:00:48.000Z,15.03
2022-12-03T11:03:16.000Z,12.53
2022-12-03T11:05:42.000Z,11.1
2022-12-03T11:08:07.000Z,10.88
2022-12-03T11:10:38.000Z,10.25
2022-12-03T11:13:05.000Z,9.85
2022-12-03T11:15:30.000Z,9.03
2022-12-03T11:20:21.000Z,8.45
2022-12-03T11:22:47.000Z,8.7
2022-12-03T11:25:12.000Z,9
2022-12-03T11:27:38.000Z,9.13
2022-12-03T11:30:10.000Z,8.8
2022-12-03T11:32:31.000Z,8.28
2022-12-03T11:34:57.000Z,8.2
2022-12-03T11:37:29.000Z,8.2
2022-12-03T11:39:55.000Z,8.25
2022-12-03T11:42:21.000Z,8.28
2022-12-03T11:47:17.000Z,8.25
2022-12-03T11:49:42.000Z,8.5
2022-12-03T11:52:11.000Z,9.58
2022-12-03T11:54:34.000Z,8.9
2022-12-03T11:57:03.000Z,9.08
2022-12-03T11:59:36.000Z,9.17
2022-12-03T12:02:30.000Z,9.88
2022-12-03T12:04:24.000Z,9.95
2022-12-03T12:09:21.000Z,10.23
2022-12-03T12:11:49.000Z,10.78
2022-12-03T12:14:16.000Z,10.68
2022-12-03T12:16:42.000Z,10.93
2022-12-03T12:19:10.000Z,10.65
2022-12-03T12:24:11.000Z,11.85
2022-12-03T12:26:34.000Z,11.6
2022-12-03T12:29:00.000Z,11.95
2022-12-03T12:31:33.000Z,11.28
2022-12-03T12:33:58.000Z,11.9
2022-12-03T12:36:24.000Z,11.25
2022-12-03T12:38:51.000Z,11.2
2022-12-03T12:41:17.000Z,11.8
2022-12-03T12:43:43.000Z,11.03
2022-12-03T12:46:11.000Z,10.95
2022-12-03T12:48:40.000Z,10.82
2022-12-03T12:51:16.000Z,10.55
2022-12-03T12:53:37.000Z,11.25
2022-12-03T12:56:08.000Z,11.3
2022-12-03T13:01:05.000Z,11.5
2022-12-03T13:03:32.000Z,11.1
2022-12-03T13:05:59.000Z,11.63
2022-12-03T13:08:25.000Z,12.3
2022-12-03T13:10:51.000Z,12.25
2022-12-03T13:13:20.000Z,12.47
2022-12-03T13:15:45.000Z,12.25
2022-12-03T13:20:44.000Z,13.2
2022-12-03T13:23:12.000Z,13.88
2022-12-03T13:25:43.000Z,14.35
2022-12-03T13:28:14.000Z,13.83
2022-12-03T13:30:44.000Z,13.53
2022-12-03T13:35:34.000Z,13.45
2022-12-03T13:38:07.000Z,14.13
2022-12-03T13:40:41.000Z,14.4
2022-12-03T13:43:00.000Z,14.97
2022-12-03T13:45:25.000Z,15.07
2022-12-03T13:47:57.000Z,15.53
2022-12-03T13:53:05.000Z,15.28
2022-12-03T13:55:36.000Z,15.97
2022-12-03T13:57:59.000Z,16.62
2022-12-03T14:00:30.000Z,16.37
2022-12-03T14:02:55.000Z,17.45
2022-12-03T14:07:50.000Z,17.98
2022-12-03T14:10:21.000Z,17.9
2022-12-03T14:12:46.000Z,17.8
2022-12-03T14:15:13.000Z,17.7
2022-12-03T14:17:37.000Z,17.93
2022-12-03T14:20:04.000Z,17.37
2022-12-03T14:22:33.000Z,17.73
2022-12-03T14:24:56.000Z,17.8
2022-12-03T14:27:23.000Z,16.05
2022-12-03T14:29:49.000Z,16.25
2022-12-03T14:32:14.000Z,16.23
2022-12-03T14:34:42.000Z,15.28
2022-12-03T14:37:09.000Z,15.72
2022-12-03T14:39:40.000Z,14.85
2022-12-03T14:44:37.000Z,13.1
2022-12-03T14:47:07.000Z,12.7
2022-12-03T14:49:32.000Z,14.03
2022-12-03T14:51:59.000Z,13.2
2022-12-03T14:54:29.000Z,14.05
2022-12-03T14:56:55.000Z,14.93
2022-12-03T14:59:24.000Z,15.83
2022-12-03T15:01:56.000Z,16.42
2022-12-03T15:04:17.000Z,17.37
2022-12-03T15:06:42.000Z,18.65
2022-12-03T15:09:09.000Z,18.77
2022-12-03T15:11:34.000Z,20.43
2022-12-03T15:14:00.000Z,21.9
2022-12-03T15:16:35.000Z,21.7
2022-12-03T15:19:03.000Z,21.45
2022-12-03T15:23:44.000Z,22.45
2022-12-03T15:26:14.000Z,22.37
2022-12-03T15:28:36.000Z,23.8
2022-12-03T15:31:03.000Z,22.65
2022-12-03T15:33:29.000Z,22.5
2022-12-03T15:35:57.000Z,19.1
2022-12-03T15:38:20.000Z,18.85
2022-12-03T15:40:47.000Z,16.6
2022-12-03T15:43:13.000Z,17.25
2022-12-03T15:45:46.000Z,15.83
2022-12-03T15:48:12.000Z,15.23
2022-12-03T15:50:36.000Z,14.5
2022-12-03T15:53:01.000Z,14.47
2022-12-03T15:55:28.000Z,14.17
2022-12-03T15:57:53.000Z,14.4
2022-12-03T16:00:35.000Z,14.05
2022-12-03T16:03:16.000Z,13.72
2022-12-03T16:05:15.000Z,14.2
2022-12-03T16:07:39.000Z,14.55
2022-12-03T16:10:07.000Z,13.93
2022-12-03T16:12:34.000Z,13.85
2022-12-03T16:14:58.000Z,13.95
2022-12-03T16:17:24.000Z,13.72
2022-12-03T16:19:50.000Z,13.85
2022-12-03T16:22:19.000Z,13.7
2022-12-03T16:24:41.000Z,13.57
2022-12-03T16:27:07.000Z,13.83
2022-12-03T16:29:32.000Z,13.7
2022-12-03T16:31:58.000Z,14
2022-12-03T16:34:24.000Z,13.7
2022-12-03T16:36:50.000Z,13.57
2022-12-03T16:39:19.000Z,13.9
2022-12-03T16:41:46.000Z,12.7
2022-12-03T16:44:08.000Z,12.63
2022-12-03T16:46:33.000Z,12.63
2022-12-03T16:48:59.000Z,12.47
2022-12-03T16:51:25.000Z,12.53
2022-12-03T16:53:51.000Z,11.87
2022-12-03T16:56:16.000Z,11.9
2022-12-03T16:58:42.000Z,11.15
2022-12-03T17:01:09.000Z,11.43
2022-12-03T17:03:33.000Z,11.53
2022-12-03T17:05:59.000Z,11.97
2022-12-03T17:08:25.000Z,12.77
2022-12-03T17:10:50.000Z,12.7
2022-12-03T17:13:17.000Z,13.2
2022-12-03T17:15:45.000Z,12.1
2022-12-03T17:18:11.000Z,13.03
2022-12-03T17:20:37.000Z,13.1
2022-12-03T17:23:03.000Z,13.1
2022-12-03T17:25:28.000Z,13.45
2022-12-03T17:27:54.000Z,13
2022-12-03T17:30:28.000Z,13.03
2022-12-03T17:32:45.000Z,13.7
2022-12-03T17:35:11.000Z,13.2
2022-12-03T17:37:36.000Z,13.35
2022-12-03T17:40:04.000Z,13.08
2022-12-03T17:42:32.000Z,13.32
2022-12-03T17:44:54.000Z,13
2022-12-03T17:47:20.000Z,13.03
2022-12-03T17:49:46.000Z,13.13
2022-12-03T17:52:11.000Z,12.53
2022-12-03T17:57:03.000Z,12.7
2022-12-03T17:59:32.000Z,13.03
2022-12-03T18:01:53.000Z,12.13
2022-12-03T18:04:20.000Z,12.47
2022-12-03T18:06:45.000Z,12.37
2022-12-03T18:09:12.000Z,12.05
2022-12-03T18:11:37.000Z,11.73
2022-12-03T18:14:03.000Z,11.77
2022-12-03T18:16:29.000Z,11.9
2022-12-03T18:18:54.000Z,12.4
2022-12-03T18:21:30.000Z,11.97
2022-12-03T18:23:53.000Z,12.3
2022-12-03T18:26:13.000Z,12.18
2022-12-03T18:28:38.000Z,11.6
2022-12-03T18:31:04.000Z,12.25
2022-12-03T18:33:29.000Z,12.83
2022-12-03T18:35:55.000Z,12.43
2022-12-03T18:38:21.000Z,13.08
2022-12-03T18:40:47.000Z,12.73
2022-12-03T18:43:12.000Z,12.85
2022-12-03T18:45:38.000Z,12.2
2022-12-03T18:48:04.000Z,12.4
2022-12-03T18:50:30.000Z,12.37
2022-12-03T18:52:56.000Z,11.93
2022-12-03T18:55:21.000Z,11.38
2022-12-03T18:57:47.000Z,11.77
2022-12-03T19:02:53.000Z,12.25
2022-12-03T19:05:18.000Z,12.1
2022-12-03T19:07:44.000Z,11.95
2022-12-03T19:10:13.000Z,11.8
2022-12-03T19:12:34.000Z,11.3
2022-12-03T19:15:01.000Z,11.63
2022-12-03T19:17:27.000Z,11.57
2022-12-03T19:19:52.000Z,11.38
2022-12-03T19:22:18.000Z,10.9
2022-12-03T19:24:44.000Z,10.87
2022-12-03T19:27:09.000Z,10.2
2022-12-03T19:29:35.000Z,10.13
2022-12-03T19:32:01.000Z,10.13
2022-12-03T19:34:28.000Z,10.08
2022-12-03T19:36:52.000Z,9.77
2022-12-03T19:39:19.000Z,9.3
2022-12-03T19:41:44.000Z,9
2022-12-03T19:44:13.000Z,8.2
2022-12-03T19:46:36.000Z,8.8
2022-12-03T19:49:01.000Z,8.08
2022-12-03T19:51:28.000Z,7.9
2022-12-03T19:53:53.000Z,7.87
2022-12-03T19:56:19.000Z,7.4
2022-12-03T19:58:44.000Z,7.4
2022-12-03T20:01:12.000Z,6.6
2022-12-03T20:03:36.000Z,7
2022-12-03T20:06:01.000Z,6.85
2022-12-03T20:08:27.000Z,6.63
2022-12-03T20:10:53.000Z,7.13
2022-12-03T20:13:20.000Z,6.97
2022-12-03T20:15:45.000Z,6.72
2022-12-03T20:18:11.000Z,6.75
2022-12-03T20:20:36.000Z,6.6
2022-12-03T20:23:02.000Z,6.5
2022-12-03T20:25:31.000Z,6.2
2022-12-03T20:27:53.000Z,5.95
2022-12-03T20:30:23.000Z,5.85
2022-12-03T20:32:45.000Z,5.7
2022-12-03T20:35:11.000Z,5.67
2022-12-03T20:37:36.000Z,5.58
2022-12-03T20:40:03.000Z,5.67
2022-12-03T20:42:31.000Z,5.53
2022-12-03T20:44:54.000Z,5.4
2022-12-03T20:47:20.000Z,5.6
2022-12-03T20:49:45.000Z,5.53
2022-12-03T20:52:16.000Z,5.03
2022-12-03T20:54:37.000Z,5.33
2022-12-03T20:57:02.000Z,5.37
2022-12-03T20:59:29.000Z,5.4
2022-12-03T21:01:55.000Z,5.45
2022-12-03T21:04:20.000Z,5.53
2022-12-03T21:06:45.000Z,5.53
2022-12-03T21:09:13.000Z,5.42
2022-12-03T21:11:37.000Z,5.37
2022-12-03T21:14:03.000Z,5.7
2022-12-03T21:16:29.000Z,5.4
2022-12-03T21:18:55.000Z,5.4
2022-12-03T21:21:20.000Z,5.3
2022-12-03T21:23:46.000Z,5.2
2022-12-03T21:26:12.000Z,5.33
2022-12-03T21:28:38.000Z,5.4
2022-12-03T21:31:05.000Z,6
2022-12-03T21:33:30.000Z,5.92
2022-12-03T21:35:55.000Z,6.28
2022-12-03T21:38:21.000Z,5.83
2022-12-03T21:40:47.000Z,5.77
2022-12-03T21:43:13.000Z,6.23
2022-12-03T21:45:38.000Z,6.28
2022-12-03T21:48:09.000Z,6.42
2022-12-03T21:50:36.000Z,6.62
2022-12-03T21:52:56.000Z,6.7
2022-12-03T21:55:21.000Z,6.95
2022-12-03T21:57:47.000Z,6.8
2022-12-03T22:00:23.000Z,7.1
2022-12-03T22:02:39.000Z,7
2022-12-03T22:05:04.000Z,7.3
2022-12-03T22:07:30.000Z,7.1
2022-12-03T22:09:55.000Z,7.22
2022-12-03T22:12:22.000Z,7.4
2022-12-03T22:14:48.000Z,7.3
2022-12-03T22:17:14.000Z,7.43
2022-12-03T22:19:39.000Z,7.53
2022-12-03T22:22:05.000Z,7.42
2022-12-03T22:24:30.000Z,8.08
2022-12-03T22:26:57.000Z,7.97
2022-12-03T22:29:22.000Z,7.75
2022-12-03T22:31:48.000Z,8.03
2022-12-03T22:34:14.000Z,8.3
2022-12-03T22:36:40.000Z,8.8
2022-12-03T22:39:08.000Z,9.03
2022-12-03T22:41:34.000Z,9.03
2022-12-03T22:43:57.000Z,9.68
2022-12-03T22:46:23.000Z,9.6
2022-12-03T22:48:48.000Z,9.7
2022-12-03T22:51:17.000Z,9.53
2022-12-03T22:53:40.000Z,9.88
2022-12-03T22:56:06.000Z,9.93
2022-12-03T22:58:32.000Z,10.55
2022-12-03T23:00:57.000Z,10.53
2022-12-03T23:03:23.000Z,10.3
2022-12-03T23:05:49.000Z,10.35
2022-12-03T23:08:14.000Z,11.57
2022-12-03T23:10:39.000Z,11.5
2022-12-03T23:13:06.000Z,12.4
2022-12-03T23:15:31.000Z,12.6
2022-12-03T23:17:57.000Z,12.5
2022-12-03T23:20:24.000Z,12.3
2022-12-03T23:22:50.000Z,13.22
2022-12-03T23:25:15.000Z,13
2022-12-03T23:27:41.000Z,12.9
2022-12-03T23:30:08.000Z,12.88
2022-12-03T23:32:33.000Z,12.2
2022-12-03T23:34:58.000Z,13.1
2022-12-03T23:37:24.000Z,12.73
2022-12-03T23:39:54.000Z,13.62
2022-12-03T23:42:16.000Z,13.4
2022-12-03T23:44:41.000Z,13.6
2022-12-03T23:47:08.000Z,14.93
2022-12-03T23:49:33.000Z,14.77
2022-12-03T23:51:59.000Z,14.55
2022-12-03T23:54:25.000Z,14.18
2022-12-03T23:56:50.000Z,15.03
2022-12-03T23:59:16.000Z,14.3
